createdAt,value
2019-06-20T00:01:36.435Z,82.70
2019-06-20T00:06:38.081Z,83.20
2019-06-20T00:11:39.650Z,83.90
2019-06-20T00:16:41.067Z,84.20
2019-06-20T00:21:42.612Z,83.50
2019-06-20T00:26:44.311Z,83.50
2019-06-20T00:31:45.917Z,83.50
2019-06-20T00:36:50.489Z,83.90
2019-06-20T00:41:53.826Z,84.30
2019-06-20T00:46:55.417Z,84.00
2019-06-20T00:51:57.010Z,83.80
2019-06-20T00:56:58.498Z,84.80
2019-06-20T01:02:00.055Z,84.60
2019-06-20T01:07:01.549Z,84.10
2019-06-20T01:12:03.090Z,84.30
2019-06-20T01:17:04.735Z,83.80
2019-06-20T01:22:06.376Z,84.20
2019-06-20T01:27:08.060Z,84.80
2019-06-20T01:32:09.884Z,84.20
2019-06-20T01:37:11.283Z,84.60
2019-06-20T01:42:12.847Z,84.70
2019-06-20T01:47:14.455Z,84.70
2019-06-20T01:52:16.042Z,85.10
2019-06-20T01:57:17.689Z,85.20
2019-06-20T02:02:19.216Z,84.80
2019-06-20T02:07:20.609Z,85.20
2019-06-20T02:12:22.164Z,84.90
2019-06-20T02:17:23.883Z,85.30
2019-06-20T02:22:25.503Z,85.40
2019-06-20T02:27:27.113Z,85.20
2019-06-20T02:32:28.560Z,85.20
2019-06-20T02:37:30.119Z,85.70
2019-06-20T02:42:31.539Z,85.80
2019-06-20T02:47:33.393Z,85.20
2019-06-20T02:52:35.151Z,85.90
2019-06-20T02:57:36.823Z,85.30
2019-06-20T03:02:38.289Z,85.50
2019-06-20T03:07:40.399Z,85.40
2019-06-20T03:12:41.831Z,85.60
2019-06-20T03:17:43.386Z,85.40
2019-06-20T03:22:44.956Z,85.10
2019-06-20T03:27:46.384Z,85.00
2019-06-20T03:32:47.814Z,85.10
2019-06-20T03:37:50.381Z,84.20
2019-06-20T03:42:52.045Z,84.60
2019-06-20T03:47:53.852Z,85.00
2019-06-20T03:53:01.114Z,84.40
2019-06-20T03:58:03.230Z,84.60
2019-06-20T04:03:04.957Z,84.60
2019-06-20T04:08:06.522Z,84.40
2019-06-20T04:13:08.035Z,84.80
2019-06-20T04:18:09.619Z,84.80
2019-06-20T04:23:11.186Z,84.20
2019-06-20T04:28:13.182Z,84.20
2019-06-20T04:33:14.825Z,84.00
2019-06-20T04:38:16.581Z,84.20
2019-06-20T04:43:18.021Z,84.20
2019-06-20T04:48:19.572Z,84.40
2019-06-20T04:53:21.113Z,84.30
2019-06-20T04:58:22.674Z,84.10
2019-06-20T05:03:24.112Z,84.40
2019-06-20T05:08:25.855Z,84.80
2019-06-20T05:13:27.429Z,84.70
2019-06-20T05:18:28.937Z,84.90
2019-06-20T05:23:31.083Z,85.20
2019-06-20T05:28:32.658Z,85.30
2019-06-20T05:33:34.251Z,85.00
2019-06-20T05:38:35.772Z,84.60
2019-06-20T05:43:37.448Z,84.20
2019-06-20T05:48:38.875Z,83.90
2019-06-20T05:53:40.442Z,83.70
2019-06-20T05:58:42.084Z,83.50
2019-06-20T06:03:43.557Z,83.50
2019-06-20T06:08:45.145Z,82.50
2019-06-20T06:13:46.597Z,81.60
2019-06-20T06:18:48.166Z,81.10
2019-06-20T06:23:49.621Z,80.20
2019-06-20T06:28:51.324Z,79.30
2019-06-20T06:33:52.933Z,78.60
2019-06-20T06:38:54.606Z,78.00
2019-06-20T06:43:56.210Z,77.40
2019-06-20T06:48:57.681Z,77.70
2019-06-20T06:53:59.204Z,75.40
2019-06-20T06:59:00.732Z,74.50
2019-06-20T07:04:02.322Z,74.20
2019-06-20T07:09:07.689Z,73.00
2019-06-20T07:14:09.304Z,72.20
2019-06-20T07:19:10.840Z,72.10
2019-06-20T07:24:12.438Z,69.90
2019-06-20T07:29:14.049Z,69.70
2019-06-20T07:34:15.716Z,69.20
2019-06-20T07:39:17.359Z,69.00
2019-06-20T07:44:18.906Z,70.00
2019-06-20T07:49:20.454Z,71.20
2019-06-20T07:54:21.942Z,69.90
2019-06-20T07:59:23.814Z,69.30
2019-06-20T08:04:25.348Z,68.00
2019-06-20T08:09:43.982Z,67.80
2019-06-20T08:14:30.357Z,67.90
2019-06-20T08:19:32.105Z,68.70
2019-06-20T08:24:33.593Z,67.00
2019-06-20T08:29:35.249Z,62.20
2019-06-20T08:34:36.961Z,58.50
2019-06-20T08:39:38.413Z,57.30
2019-06-20T08:44:40.073Z,57.00
2019-06-20T08:49:41.584Z,56.70
2019-06-20T08:54:43.367Z,56.10
2019-06-20T08:59:44.836Z,55.50
2019-06-20T09:04:46.694Z,56.00
2019-06-20T09:09:48.346Z,54.90
2019-06-20T09:14:50.034Z,54.00
2019-06-20T09:19:51.746Z,54.90
2019-06-20T09:24:55.166Z,54.90
2019-06-20T09:29:58.519Z,54.50
2019-06-20T09:35:00.451Z,53.50
2019-06-20T09:40:04.207Z,53.10
2019-06-20T09:45:13.287Z,54.80
2019-06-20T09:50:15.112Z,54.20
2019-06-20T09:55:16.822Z,52.80
2019-06-20T10:00:20.905Z,52.40
2019-06-20T10:05:23.298Z,52.60
2019-06-20T10:10:27.665Z,53.70
2019-06-20T10:15:31.734Z,52.10
2019-06-20T10:20:33.396Z,51.80
2019-06-20T10:25:35.395Z,50.50
2019-06-20T10:30:37.062Z,50.10
2019-06-20T10:35:38.710Z,50.30
2019-06-20T10:40:40.370Z,48.50
2019-06-20T10:45:44.069Z,48.00
2019-06-20T10:50:45.695Z,49.30
2019-06-20T10:55:47.416Z,48.50
2019-06-20T11:00:50.293Z,45.50
2019-06-20T11:05:51.934Z,44.70
2019-06-20T11:10:53.801Z,41.90
2019-06-20T11:15:55.773Z,40.10
2019-06-20T11:20:57.427Z,41.70
2019-06-20T11:25:59.002Z,42.80
2019-06-20T11:31:00.858Z,42.50
2019-06-20T11:36:03.191Z,42.20
2019-06-20T11:41:04.759Z,43.70
2019-06-20T11:46:06.427Z,43.00
2019-06-20T11:51:08.188Z,42.70
2019-06-20T11:56:10.062Z,45.00
2019-06-20T12:01:13.655Z,45.90
2019-06-20T12:06:15.227Z,45.80
2019-06-20T12:11:16.895Z,46.90
2019-06-20T12:16:18.525Z,47.80
2019-06-20T12:21:20.596Z,48.60
2019-06-20T12:26:22.729Z,47.80
2019-06-20T12:31:24.248Z,48.50
2019-06-20T12:36:25.883Z,56.60
2019-06-20T12:41:27.432Z,65.80
2019-06-20T12:46:28.956Z,71.60
2019-06-20T12:51:31.014Z,73.00
2019-06-20T12:56:32.674Z,76.60
2019-06-20T13:01:38.852Z,79.30
2019-06-20T13:06:38.803Z,83.70
2019-06-20T13:11:40.804Z,74.10
2019-06-20T13:16:42.815Z,63.50
2019-06-20T13:21:44.640Z,54.60
2019-06-20T13:26:48.884Z,55.20
2019-06-20T13:32:01.962Z,53.90
2019-06-20T13:36:53.650Z,52.90
2019-06-20T13:41:55.152Z,53.90
2019-06-20T13:46:56.897Z,55.10
2019-06-20T13:51:58.495Z,53.80
2019-06-20T13:57:00.132Z,54.30
2019-06-20T14:02:06.509Z,53.20
2019-06-20T14:07:05.629Z,52.10
2019-06-20T14:12:07.361Z,52.90
2019-06-20T14:17:09.048Z,52.70
2019-06-20T14:22:10.576Z,53.50
2019-06-20T14:27:12.135Z,51.60
2019-06-20T14:32:22.015Z,51.50
2019-06-20T14:37:17.653Z,53.10
2019-06-20T14:42:19.267Z,53.20
2019-06-20T14:47:20.820Z,54.30
2019-06-20T14:52:22.514Z,57.50
2019-06-20T14:57:24.127Z,57.10
2019-06-20T15:02:38.051Z,56.90
2019-06-20T15:07:30.084Z,57.10
2019-06-20T15:12:31.639Z,56.20
2019-06-20T15:17:33.315Z,56.70
2019-06-20T15:22:35.258Z,57.00
2019-06-20T15:27:36.829Z,57.00
2019-06-20T15:32:53.067Z,57.10
2019-06-20T15:37:41.846Z,57.40
2019-06-20T15:42:43.379Z,58.10
2019-06-20T15:47:45.978Z,58.00
2019-06-20T15:52:47.658Z,56.80
2019-06-20T15:57:49.570Z,57.80
2019-06-20T16:02:51.068Z,57.80
2019-06-20T16:07:52.941Z,57.90
2019-06-20T16:12:54.540Z,58.50
2019-06-20T16:17:56.248Z,57.90
2019-06-20T16:22:57.778Z,58.20
2019-06-20T16:27:59.428Z,57.60
2019-06-20T16:33:00.949Z,58.30
2019-06-20T16:38:02.855Z,58.40
2019-06-20T16:43:04.530Z,59.40
2019-06-20T16:48:06.194Z,59.70
2019-06-20T16:53:07.878Z,59.90
2019-06-20T16:58:09.618Z,59.80
2019-06-20T17:03:11.446Z,61.10
2019-06-20T17:08:13.027Z,61.60
2019-06-20T17:13:14.660Z,62.60
2019-06-20T17:18:16.329Z,63.60
2019-06-20T17:23:18.811Z,64.60
2019-06-20T17:28:21.269Z,65.60
2019-06-20T17:33:22.833Z,67.20
2019-06-20T17:38:24.825Z,67.50
2019-06-20T17:43:26.784Z,68.40
2019-06-20T17:48:28.726Z,68.40
2019-06-20T17:53:30.240Z,69.30
2019-06-20T17:58:31.939Z,69.90
2019-06-20T18:03:33.636Z,70.40
2019-06-20T18:08:35.146Z,70.80
2019-06-20T18:13:37.568Z,71.20
2019-06-20T18:18:39.012Z,71.60
2019-06-20T18:23:40.689Z,72.50
2019-06-20T18:28:42.138Z,73.60
2019-06-20T18:33:43.729Z,73.80
2019-06-20T18:38:45.438Z,73.80
2019-06-20T18:43:47.332Z,73.00
2019-06-20T18:48:48.961Z,79.30
2019-06-20T18:53:50.768Z,84.30
2019-06-20T18:59:13.477Z,87.30
2019-06-20T19:04:14.984Z,88.40
2019-06-20T19:09:16.783Z,89.60
2019-06-20T19:14:18.469Z,90.30
2019-06-20T19:19:20.898Z,89.40
2019-06-20T19:24:22.716Z,90.40
2019-06-20T19:29:24.412Z,90.50
2019-06-20T19:34:26.068Z,89.80
2019-06-20T19:44:27.704Z,89.50
2019-06-20T19:49:29.692Z,90.80
2019-06-20T19:54:31.883Z,91.60
2019-06-20T19:59:33.764Z,91.90
2019-06-20T20:04:35.392Z,91.70
2019-06-20T20:09:37.268Z,91.10
2019-06-20T20:14:38.859Z,91.80
2019-06-20T20:19:40.386Z,91.80
2019-06-20T20:24:42.042Z,91.50
2019-06-20T20:29:43.969Z,91.40
2019-06-20T20:34:45.602Z,90.80
2019-06-20T20:39:47.278Z,90.90
2019-06-20T20:44:48.837Z,90.60
2019-06-20T20:49:50.425Z,91.10
2019-06-20T20:54:51.964Z,91.70
2019-06-20T20:59:53.405Z,91.40
2019-06-20T21:04:54.971Z,92.10
2019-06-20T21:09:56.481Z,92.70
2019-06-20T21:14:57.939Z,92.50
2019-06-20T21:19:59.520Z,92.60
2019-06-20T21:25:01.128Z,92.70
2019-06-20T21:30:05.630Z,92.90
2019-06-20T21:35:08.380Z,93.30
2019-06-20T21:40:10.498Z,92.90
2019-06-20T21:45:12.174Z,92.80
2019-06-20T21:50:14.301Z,93.10
2019-06-20T21:55:15.956Z,93.20
2019-06-20T22:00:38.394Z,93.80
2019-06-20T22:05:40.474Z,93.50
2019-06-20T22:10:41.962Z,93.30
2019-06-20T22:15:43.500Z,93.00
2019-06-20T22:20:45.138Z,93.10
2019-06-20T22:25:46.601Z,93.40
2019-06-20T22:30:51.727Z,93.70
2019-06-20T22:35:53.239Z,93.80
2019-06-20T22:40:54.881Z,93.90
2019-06-20T22:45:56.537Z,93.90
2019-06-20T22:50:58.285Z,94.00
2019-06-20T22:56:00.002Z,94.20
2019-06-20T23:01:01.894Z,94.30
2019-06-20T23:06:03.684Z,94.50
2019-06-20T23:11:05.332Z,94.20
2019-06-20T23:16:06.912Z,94.10
2019-06-20T23:21:08.558Z,94.20
2019-06-20T23:26:11.533Z,94.30
2019-06-20T23:31:13.126Z,94.10
2019-06-20T23:36:14.742Z,94.10
2019-06-20T23:41:16.285Z,94.10
2019-06-20T23:46:17.841Z,94.10
2019-06-20T23:51:25.442Z,94.10
2019-06-20T23:56:24.738Z,94.10
